Time;durP1;ratioP1;P1;durP2;ratioP2;P2;SDS_P1;SDS_P2;PMS_P1;PMS_P2;Temp;Humidity;BMP_temperature;BMP_pressure;BME280_temperature;BME280_humidity;BME280_pressure;Samples;Min_cycle;Max_cycle;Signal;HPM_P1;HPM_P2
2021/06/03 00:00:39;;;;;;;7.82;3.60;;;;;;;13.40;91.99;96541.34;5040314;28;20675;-72
2021/06/03 00:03:05;;;;;;;7.18;3.65;;;;;;;13.45;92.63;96531.88;5040071;28;20229;-71
2021/06/03 00:05:38;;;;;;;7.80;4.43;;;;;;;13.45;92.14;96539.81;5039633;28;20209;-72
2021/06/03 00:08:05;;;;;;;6.82;3.70;;;;;;;13.39;93.55;96540.53;5038314;28;20205;-72
2021/06/03 00:10:34;;;;;;;6.45;3.70;;;;;;;13.26;95.04;96533.47;5040571;28;20706;-72
2021/06/03 00:13:01;;;;;;;6.88;4.00;;;;;;;13.19;94.70;96532.56;5040347;28;20229;-71
2021/06/03 00:15:27;;;;;;;6.32;3.47;;;;;;;13.12;94.24;96529.00;5039500;28;20671;-72
2021/06/03 00:17:56;;;;;;;6.22;3.80;;;;;;;13.08;95.24;96525.09;5039633;28;20220;-72
2021/06/03 00:20:25;;;;;;;8.10;3.78;;;;;;;13.23;95.51;96529.34;5039396;28;20582;-72
2021/06/03 00:22:52;;;;;;;5.18;3.90;;;;;;;13.21;95.27;96551.72;5038903;28;20640;-71
2021/06/03 00:25:18;;;;;;;7.05;4.45;;;;;;;13.11;96.12;96556.47;5038664;28;20558;-72
2021/06/03 00:27:44;;;;;;;6.13;4.15;;;;;;;13.28;97.05;96560.56;5040355;28;20251;-72
2021/06/03 00:30:11;;;;;;;8.65;4.70;;;;;;;13.39;97.31;96555.63;5039182;28;20588;-72
2021/06/03 00:32:37;;;;;;;11.13;5.53;;;;;;;13.51;97.81;96546.97;5039475;28;20479;-72
2021/06/03 00:35:06;;;;;;;9.18;5.22;;;;;;;13.62;98.02;96540.38;5037530;28;20198;-72
2021/06/03 00:37:32;;;;;;;9.52;5.80;;;;;;;13.73;98.54;96550.47;5040039;28;20232;-72
2021/06/03 00:39:58;;;;;;;10.30;5.35;;;;;;;13.86;97.97;96546.16;5039220;28;20212;-72
2021/06/03 00:42:25;;;;;;;9.95;5.57;;;;;;;13.91;98.62;96550.84;5039670;28;20221;-72
2021/06/03 00:44:51;;;;;;;8.35;5.07;;;;;;;13.86;99.11;96559.38;5039872;28;20944;-72
2021/06/03 00:47:18;;;;;;;8.77;5.35;;;;;;;13.95;98.81;96555.59;5037651;28;20202;-72
2021/06/03 00:49:44;;;;;;;10.68;4.97;;;;;;;13.88;96.81;96562.66;5039852;28;20212;-72
2021/06/03 00:52:12;;;;;;;9.55;5.38;;;;;;;13.89;96.46;96550.25;5038977;28;20202;-72
2021/06/03 00:54:38;;;;;;;11.48;4.82;;;;;;;13.87;95.56;96555.69;5039886;28;20667;-72
2021/06/03 00:57:05;;;;;;;6.95;4.30;;;;;;;13.80;95.81;96552.19;5039357;28;20225;-71
2021/06/03 00:59:31;;;;;;;7.75;5.07;;;;;;;13.81;96.25;96559.13;5039514;28;20208;-72
2021/06/03 01:01:57;;;;;;;7.85;4.72;;;;;;;13.78;96.36;96561.31;5038898;28;20205;-72
2021/06/03 01:04:23;;;;;;;7.07;4.32;;;;;;;13.75;96.52;96561.72;5039095;28;20197;-72
2021/06/03 01:06:49;;;;;;;7.70;4.95;;;;;;;13.71;96.14;96571.03;5037258;28;20201;-71
2021/06/03 01:09:23;;;;;;;7.65;4.70;;;;;;;13.60;97.37;96568.88;5038506;28;20224;-72
2021/06/03 01:11:55;;;;;;;6.97;4.85;;;;;;;13.58;98.19;96566.44;5039282;28;20228;-72
2021/06/03 01:14:25;;;;;;;9.05;5.60;;;;;;;13.63;98.76;96571.97;5038773;28;20201;-72
2021/06/03 01:16:54;;;;;;;6.40;5.10;;;;;;;13.67;98.47;96573.25;5038375;28;20764;-72
2021/06/03 01:19:25;;;;;;;8.15;5.43;;;;;;;13.75;97.98;96581.06;5039046;28;20736;-72
2021/06/03 01:21:55;;;;;;;11.35;5.88;;;;;;;13.52;97.98;96575.09;5039201;28;20497;-72
2021/06/03 01:24:30;;;;;;;9.30;4.35;;;;;;;13.54;97.04;96575.75;5038438;28;20201;-72
2021/06/03 01:26:59;;;;;;;7.60;4.55;;;;;;;13.56;97.70;96579.03;5037939;28;20212;-71
2021/06/03 01:29:27;;;;;;;8.23;5.88;;;;;;;13.59;98.32;96583.13;5038481;28;20662;-71
2021/06/03 01:31:55;;;;;;;5.10;4.20;;;;;;;13.48;100.00;96587.09;5038636;28;20541;-72
2021/06/03 01:34:24;;;;;;;6.57;4.20;;;;;;;13.49;99.47;96583.44;5038965;28;20205;-71
2021/06/03 01:36:51;;;;;;;7.43;4.78;;;;;;;13.52;98.95;96580.41;5037264;28;20232;-72
2021/06/03 01:39:18;;;;;;;9.90;4.38;;;;;;;13.49;99.67;96580.78;5037776;28;20209;-71
2021/06/03 01:41:46;;;;;;;7.22;4.40;;;;;;;13.52;99.76;96580.41;5038249;28;20296;-72
2021/06/03 01:44:12;;;;;;;7.32;4.10;;;;;;;13.53;99.18;96587.34;5038596;28;20657;-72
2021/06/03 01:46:39;;;;;;;6.45;4.25;;;;;;;13.52;99.21;96583.06;5037397;28;20205;-72
2021/06/03 01:49:06;;;;;;;5.95;4.38;;;;;;;13.48;98.93;96584.44;5038388;28;20208;-71
2021/06/03 01:51:32;;;;;;;11.48;5.15;;;;;;;13.34;99.84;96584.47;5038727;28;20609;-72
2021/06/03 01:53:59;;;;;;;7.45;4.57;;;;;;;13.31;100.00;96584.00;5038052;28;20225;-72
2021/06/03 01:56:25;;;;;;;7.70;4.53;;;;;;;13.37;100.00;96583.28;5037088;28;20224;-72
2021/06/03 01:58:53;;;;;;;7.80;4.93;;;;;;;13.47;99.10;96584.63;5038809;28;20264;-72
2021/06/03 02:01:20;;;;;;;4.88;3.97;;;;;;;13.42;99.62;96593.09;5037887;28;20224;-72
2021/06/03 02:03:47;;;;;;;9.13;4.45;;;;;;;13.30;100.00;96588.50;5037498;28;20509;-72
2021/06/03 02:06:13;;;;;;;8.05;4.40;;;;;;;13.39;100.00;96593.50;5037824;28;20577;-71
2021/06/03 02:08:39;;;;;;;6.25;3.95;;;;;;;13.34;100.00;96591.56;5037546;28;20212;-72
2021/06/03 02:11:06;;;;;;;7.85;4.40;;;;;;;13.24;100.00;96593.69;5038033;28;20205;-72
2021/06/03 02:13:36;;;;;;;6.68;4.70;;;;;;;13.23;100.00;96592.06;5035703;28;20247;-71
2021/06/03 02:16:09;;;;;;;11.05;5.20;;;;;;;13.13;100.00;96591.53;5036898;28;20205;-72
2021/06/03 02:18:39;;;;;;;6.15;4.32;;;;;;;13.12;100.00;96595.16;5038352;28;20209;-72
2021/06/03 02:21:06;;;;;;;11.52;5.30;;;;;;;13.15;100.00;96600.91;5037795;28;20201;-72
2021/06/03 02:23:33;;;;;;;7.65;4.55;;;;;;;12.96;100.00;96609.41;5038350;28;20221;-72
2021/06/03 02:26:01;;;;;;;10.60;4.70;;;;;;;13.01;100.00;96606.22;5036894;28;20258;-72
2021/06/03 02:28:28;;;;;;;7.32;4.70;;;;;;;13.01;100.00;96600.94;5036366;28;20212;-71
2021/06/03 02:30:55;;;;;;;9.98;5.13;;;;;;;12.98;100.00;96607.41;5037871;28;20197;-72
2021/06/03 02:33:22;;;;;;;8.80;5.07;;;;;;;13.07;100.00;96618.69;5037705;28;20229;-72
2021/06/03 02:35:48;;;;;;;11.32;4.88;;;;;;;12.88;100.00;96620.09;5037354;28;20201;-72
2021/06/03 02:38:17;;;;;;;14.02;5.88;;;;;;;12.98;100.00;96617.16;5037826;28;20595;-72
2021/06/03 02:40:43;;;;;;;8.07;4.88;;;;;;;12.99;100.00;96616.16;5037318;28;20674;-71
2021/06/03 02:43:09;;;;;;;7.78;4.82;;;;;;;12.98;100.00;96614.50;5036962;28;20411;-72
2021/06/03 02:45:35;;;;;;;7.13;5.15;;;;;;;13.03;100.00;96609.50;5036329;28;20209;-72
2021/06/03 02:48:02;;;;;;;13.07;6.38;;;;;;;13.11;100.00;96609.38;5036119;28;20568;-72
2021/06/03 02:50:30;;;;;;;7.75;5.05;;;;;;;12.97;100.00;96612.84;5037309;28;20275;-72
2021/06/03 02:52:57;;;;;;;9.45;5.18;;;;;;;13.01;100.00;96608.88;5039038;28;20224;-71
2021/06/03 02:55:24;;;;;;;10.60;5.45;;;;;;;13.09;100.00;96608.78;5040061;28;20193;-72
2021/06/03 02:57:50;;;;;;;6.68;4.70;;;;;;;12.84;100.00;96608.19;5042276;28;20225;-71
2021/06/03 03:00:21;;;;;;;9.30;4.70;;;;;;;12.76;98.86;96616.19;5040867;28;20535;-72
2021/06/03 03:02:47;;;;;;;7.85;5.18;;;;;;;12.69;99.82;96614.47;5041141;28;20600;-71
2021/06/03 03:05:13;;;;;;;7.40;4.90;;;;;;;12.67;100.00;96616.47;5040989;28;20604;-72
2021/06/03 03:07:40;;;;;;;9.25;5.30;;;;;;;12.68;100.00;96615.47;5041478;28;20201;-72
2021/06/03 03:10:10;;;;;;;13.15;4.80;;;;;;;12.53;100.00;96616.44;5041050;28;20197;-72
2021/06/03 03:12:36;;;;;;;9.40;4.53;;;;;;;12.52;100.00;96618.25;5041631;28;20271;-72
2021/06/03 03:15:02;;;;;;;10.05;4.57;;;;;;;12.53;100.00;96619.91;5042036;28;20594;-72
2021/06/03 03:17:28;;;;;;;7.07;4.78;;;;;;;12.34;100.00;96627.53;5040970;28;20282;-72
2021/06/03 03:19:54;;;;;;;9.85;4.88;;;;;;;12.42;100.00;96630.94;5041360;28;20303;-72
2021/06/03 03:22:20;;;;;;;8.88;5.90;;;;;;;12.37;100.00;96635.09;5040632;28;21046;-72
2021/06/03 03:24:47;;;;;;;15.73;5.35;;;;;;;12.38;100.00;96634.09;5041613;28;20197;-72
2021/06/03 03:27:13;;;;;;;8.80;5.28;;;;;;;12.42;100.00;96633.56;5040030;28;20590;-72
2021/06/03 03:29:40;;;;;;;10.00;5.10;;;;;;;12.25;100.00;96637.31;5041459;28;20393;-71
2021/06/03 03:32:06;;;;;;;9.43;5.67;;;;;;;12.21;100.00;96633.41;5041704;28;20232;-72
2021/06/03 03:34:32;;;;;;;10.07;5.50;;;;;;;12.28;100.00;96637.00;5040211;28;20912;-71
2021/06/03 03:36:58;;;;;;;7.88;5.63;;;;;;;12.35;100.00;96645.84;5039769;28;20448;-72
2021/06/03 03:39:24;;;;;;;10.40;6.25;;;;;;;12.45;100.00;96649.06;5041358;28;20212;-72
2021/06/03 03:41:52;;;;;;;12.73;6.13;;;;;;;12.26;100.00;96646.91;5040098;28;20208;-71
2021/06/03 03:44:18;;;;;;;9.98;5.47;;;;;;;12.14;100.00;96649.31;5040316;28;20722;-72
2021/06/03 03:46:44;;;;;;;11.15;5.63;;;;;;;12.14;100.00;96650.13;5039648;28;20201;-72
2021/06/03 03:49:10;;;;;;;9.93;6.10;;;;;;;12.27;100.00;96645.06;5040978;28;20636;-71
2021/06/03 03:51:36;;;;;;;14.13;6.05;;;;;;;12.36;100.00;96651.97;5040588;28;20287;-71
2021/06/03 03:54:03;;;;;;;11.23;6.80;;;;;;;12.18;100.00;96649.63;5040818;28;20227;-72
2021/06/03 03:56:29;;;;;;;12.57;6.83;;;;;;;12.34;100.00;96649.47;5039309;28;20914;-72
2021/06/03 03:58:58;;;;;;;9.03;5.70;;;;;;;12.43;100.00;96656.34;5040015;28;20250;-71
2021/06/03 04:01:27;;;;;;;12.52;5.97;;;;;;;12.47;100.00;96647.03;5040524;28;20498;-71
2021/06/03 04:03:54;;;;;;;7.35;6.05;;;;;;;12.53;100.00;96646.34;5038469;28;20562;-72
2021/06/03 04:06:20;;;;;;;10.07;6.18;;;;;;;12.59;100.00;96645.63;5039121;28;20201;-72
2021/06/03 04:08:46;;;;;;;11.52;6.75;;;;;;;12.66;100.00;96656.31;5039881;28;20205;-72
2021/06/03 04:11:12;;;;;;;9.02;6.28;;;;;;;12.84;100.00;96655.81;5039515;28;20252;-72
2021/06/03 04:13:38;;;;;;;10.30;5.82;;;;;;;12.81;100.00;96655.34;5039506;28;20221;-72
2021/06/03 04:16:06;;;;;;;9.38;5.88;;;;;;;12.91;100.00;96659.38;5039339;28;20296;-72
2021/06/03 04:18:32;;;;;;;11.82;6.07;;;;;;;12.94;100.00;96660.84;5039670;28;20229;-72
2021/06/03 04:20:58;;;;;;;12.02;6.35;;;;;;;12.92;100.00;96665.50;5038746;28;20212;-72
2021/06/03 04:23:24;;;;;;;8.98;6.07;;;;;;;12.97;100.00;96663.13;5040155;28;20774;-72
2021/06/03 04:25:50;;;;;;;10.00;6.90;;;;;;;13.04;100.00;96662.22;5038866;28;20581;-72
2021/06/03 04:28:17;;;;;;;10.95;7.00;;;;;;;13.24;100.00;96679.22;5039186;28;20671;-72
2021/06/03 04:30:45;;;;;;;14.63;7.93;;;;;;;13.36;100.00;96683.03;5040129;28;20551;-72
2021/06/03 04:33:14;;;;;;;11.30;7.28;;;;;;;13.44;100.00;96681.13;5039915;28;20221;-72
2021/06/03 04:35:40;;;;;;;12.95;8.80;;;;;;;13.61;100.00;96684.41;5038810;28;20271;-72
2021/06/03 04:38:06;;;;;;;16.23;8.95;;;;;;;13.70;100.00;96685.94;5039053;28;20546;-72
2021/06/03 04:40:32;;;;;;;12.60;8.55;;;;;;;13.86;100.00;96686.53;5039204;28;20284;-72
2021/06/03 04:42:59;;;;;;;13.30;8.43;;;;;;;13.95;100.00;96680.13;5039156;28;20232;-72
2021/06/03 04:45:25;;;;;;;14.75;9.27;;;;;;;14.07;100.00;96689.22;5038875;28;20208;-72
2021/06/03 04:47:52;;;;;;;16.55;9.90;;;;;;;14.29;100.00;96690.91;5041297;28;20193;-72
2021/06/03 04:50:22;;;;;;;16.48;9.73;;;;;;;14.44;100.00;96692.50;5040491;28;20209;-72
2021/06/03 04:52:49;;;;;;;13.10;9.48;;;;;;;14.53;100.00;96695.84;5040564;28;20250;-72
2021/06/03 04:55:17;;;;;;;14.32;9.35;;;;;;;14.69;100.00;96693.75;5037845;28;20501;-72
2021/06/03 04:57:44;;;;;;;13.10;9.68;;;;;;;14.92;100.00;96689.88;5039890;28;20602;-72
2021/06/03 05:00:12;;;;;;;13.20;9.25;;;;;;;15.02;100.00;96687.69;5038604;28;20204;-71
2021/06/03 05:02:38;;;;;;;15.13;8.68;;;;;;;15.16;100.00;96700.06;5039451;28;20229;-71
2021/06/03 05:05:05;;;;;;;12.68;8.88;;;;;;;15.26;100.00;96703.19;5039291;28;20206;-72
2021/06/03 05:07:33;;;;;;;12.75;8.95;;;;;;;15.35;100.00;96705.53;5036697;28;20205;-71
2021/06/03 05:09:59;;;;;;;15.32;9.25;;;;;;;15.39;100.00;96701.44;5040122;28;20200;-71
2021/06/03 05:12:25;;;;;;;13.82;9.15;;;;;;;15.49;100.00;96701.94;5041613;28;20228;-71
2021/06/03 05:14:51;;;;;;;12.18;8.50;;;;;;;15.59;100.00;96705.06;5039599;28;20300;-71
2021/06/03 05:17:17;;;;;;;12.98;8.68;;;;;;;15.72;100.00;96702.47;5038501;28;20236;-70
2021/06/03 05:19:43;;;;;;;13.75;8.18;;;;;;;15.90;100.00;96708.88;5039495;28;20742;-72
2021/06/03 05:22:09;;;;;;;11.52;8.05;;;;;;;15.98;100.00;96711.34;5038689;28;20205;-70
2021/06/03 05:24:37;;;;;;;12.40;9.05;;;;;;;16.03;100.00;96716.09;5038502;28;20205;-71
2021/06/03 05:27:03;;;;;;;11.05;8.02;;;;;;;16.17;100.00;96715.13;5038890;28;20201;-71
2021/06/03 05:29:30;;;;;;;14.00;8.50;;;;;;;16.25;100.00;96712.28;5039640;28;20208;-71
2021/06/03 05:31:56;;;;;;;12.95;8.15;;;;;;;16.33;100.00;96712.97;5039743;28;20224;-71
2021/06/03 05:34:22;;;;;;;11.55;7.70;;;;;;;16.47;100.00;96716.44;5038837;28;20853;-71
2021/06/03 05:36:48;;;;;;;11.30;7.95;;;;;;;16.48;100.00;96720.75;5037776;28;20228;-71
2021/06/03 05:39:15;;;;;;;12.50;7.88;;;;;;;16.55;100.00;96722.41;5039704;28;20197;-71
2021/06/03 05:41:43;;;;;;;14.48;8.00;;;;;;;16.67;100.00;96721.59;5039205;28;20197;-71
2021/06/03 05:44:11;;;;;;;10.63;7.85;;;;;;;16.77;100.00;96716.69;5038390;28;20226;-71
2021/06/03 05:46:38;;;;;;;11.73;7.75;;;;;;;16.91;100.00;96720.19;5039211;28;20201;-71
2021/06/03 05:49:05;;;;;;;10.38;7.72;;;;;;;16.90;100.00;96723.88;5039137;28;20197;-71
2021/06/03 05:51:32;;;;;;;10.40;7.95;;;;;;;17.09;99.21;96730.03;5039221;28;20220;-71
2021/06/03 05:53:58;;;;;;;9.45;6.78;;;;;;;17.22;99.47;96731.88;5038629;28;20233;-71
2021/06/03 05:56:25;;;;;;;14.32;7.88;;;;;;;17.32;98.78;96730.47;5037927;28;21160;-71
2021/06/03 05:58:53;;;;;;;12.30;6.93;;;;;;;17.42;98.88;96738.03;5037888;28;20994;-71
2021/06/03 06:01:19;;;;;;;11.20;7.45;;;;;;;17.49;97.96;96738.84;5038174;28;20213;-71
2021/06/03 06:03:50;;;;;;;11.70;8.00;;;;;;;17.57;97.24;96742.13;5038936;28;21106;-71
2021/06/03 06:06:25;;;;;;;12.63;7.95;;;;;;;17.67;97.84;96737.19;5037175;28;20209;-71
2021/06/03 06:08:53;;;;;;;12.25;7.45;;;;;;;17.86;97.70;96744.31;5035787;28;21128;-71
2021/06/03 06:11:19;;;;;;;9.32;6.90;;;;;;;18.01;96.63;96744.88;5039541;28;20255;-71
2021/06/03 06:13:46;;;;;;;11.40;7.93;;;;;;;18.08;95.16;96745.69;5038689;28;20228;-73
2021/06/03 06:16:14;;;;;;;13.38;7.07;;;;;;;18.16;93.45;96742.75;5037208;28;20211;-73
2021/06/03 06:18:40;;;;;;;8.40;6.65;;;;;;;18.22;93.29;96752.63;5037925;28;20236;-71
2021/06/03 06:21:07;;;;;;;10.80;7.22;;;;;;;18.29;92.83;96764.09;5038471;28;20201;-71
2021/06/03 06:23:34;;;;;;;11.57;7.18;;;;;;;18.40;92.52;96770.38;5038184;28;20221;-71
2021/06/03 06:26:00;;;;;;;13.60;6.75;;;;;;;18.60;90.97;96763.13;5037977;28;20813;-71
2021/06/03 06:28:26;;;;;;;12.45;7.25;;;;;;;18.70;90.21;96763.47;5037684;28;20211;-71
2021/06/03 06:30:52;;;;;;;10.90;6.80;;;;;;;18.77;90.24;96768.78;5037350;28;20881;-71
2021/06/03 06:33:20;;;;;;;8.85;6.53;;;;;;;18.96;90.12;96764.13;5039286;28;20221;-71
2021/06/03 06:35:48;;;;;;;8.93;6.50;;;;;;;19.05;89.90;96772.69;5038469;28;20197;-71
2021/06/03 06:38:15;;;;;;;10.50;6.63;;;;;;;19.10;87.76;96770.22;5036923;28;20588;-71
2021/06/03 06:40:41;;;;;;;8.50;6.28;;;;;;;19.21;87.84;96767.66;5038496;28;21263;-71
2021/06/03 06:43:07;;;;;;;8.57;5.60;;;;;;;19.34;86.23;96769.44;5039404;28;20256;-71
2021/06/03 06:45:34;;;;;;;8.60;5.95;;;;;;;19.35;87.02;96769.22;5036584;28;21073;-71
2021/06/03 06:48:00;;;;;;;7.35;5.90;;;;;;;19.44;88.59;96767.91;5039028;28;20208;-71
2021/06/03 06:50:27;;;;;;;8.60;5.85;;;;;;;19.67;85.01;96776.94;5038171;28;20564;-71
2021/06/03 06:52:54;;;;;;;7.18;5.20;;;;;;;19.89;82.36;96780.00;5038226;28;20221;-73
2021/06/03 06:55:21;;;;;;;7.50;5.80;;;;;;;19.94;86.65;96778.34;5037572;28;20243;-72
2021/06/03 06:57:47;;;;;;;12.52;6.28;;;;;;;20.04;83.39;96778.66;5038768;28;20236;-73
2021/06/03 07:00:14;;;;;;;9.60;5.82;;;;;;;20.09;84.86;96781.47;5036684;28;20201;-72
2021/06/03 07:02:40;;;;;;;7.75;6.20;;;;;;;20.05;82.74;96785.63;5038553;28;20438;-73
2021/06/03 07:05:07;;;;;;;18.13;5.82;;;;;;;20.33;82.30;96788.63;5037850;28;20259;-73
2021/06/03 07:07:35;;;;;;;8.45;5.80;;;;;;;20.61;82.85;96778.16;5035726;28;20201;-72
2021/06/03 07:10:01;;;;;;;10.70;6.32;;;;;;;20.73;78.79;96781.75;5038315;28;20205;-73
2021/06/03 07:12:27;;;;;;;8.02;5.70;;;;;;;20.79;79.77;96783.53;5037643;28;20308;-73
2021/06/03 07:14:53;;;;;;;8.57;5.88;;;;;;;20.73;78.50;96781.75;5038185;28;20219;-72
2021/06/03 07:17:19;;;;;;;13.35;5.88;;;;;;;20.87;81.23;96776.81;5037000;28;20217;-73
2021/06/03 07:19:45;;;;;;;7.75;5.13;;;;;;;21.13;79.69;96778.28;5038257;28;20232;-73
2021/06/03 07:22:11;;;;;;;9.75;5.95;;;;;;;21.26;81.37;96762.00;5038541;28;20656;-73
2021/06/03 07:24:40;;;;;;;9.00;4.95;;;;;;;21.39;77.18;96761.81;5038308;28;20587;-72
2021/06/03 07:27:07;;;;;;;7.95;5.07;;;;;;;21.42;78.80;96762.13;5036365;28;20598;-73
2021/06/03 07:29:33;;;;;;;8.93;5.30;;;;;;;21.38;75.12;96766.31;5037841;28;20212;-73
2021/06/03 07:32:00;;;;;;;8.55;5.03;;;;;;;21.34;78.57;96770.53;5037033;28;20197;-73
2021/06/03 07:34:26;;;;;;;7.78;5.13;;;;;;;21.50;79.08;96765.34;5037720;28;20205;-73
2021/06/03 07:36:52;;;;;;;8.05;5.50;;;;;;;21.35;77.15;96772.16;5037291;28;20205;-73
2021/06/03 07:39:20;;;;;;;7.88;5.03;;;;;;;21.42;79.19;96769.38;5039905;28;20205;-72
2021/06/03 07:41:48;;;;;;;8.38;5.38;;;;;;;21.44;78.33;96776.13;5040581;28;20197;-72
2021/06/03 07:44:14;;;;;;;9.57;6.13;;;;;;;21.55;80.53;96780.75;5041086;28;20224;-72
2021/06/03 07:46:40;;;;;;;6.97;4.72;;;;;;;21.71;79.77;96772.00;5041331;28;20213;-73
2021/06/03 07:49:07;;;;;;;9.65;5.25;;;;;;;21.85;80.08;96778.78;5040504;28;20265;-72
2021/06/03 07:51:33;;;;;;;9.13;5.13;;;;;;;21.95;75.20;96774.44;5040853;28;20604;-73
2021/06/03 07:53:59;;;;;;;6.18;4.35;;;;;;;21.72;73.75;96776.31;5041106;28;20221;-73
2021/06/03 07:56:25;;;;;;;8.18;4.68;;;;;;;21.91;77.75;96778.66;5040044;28;20209;-72
2021/06/03 07:58:52;;;;;;;6.53;4.70;;;;;;;21.99;74.02;96774.81;5041134;28;20221;-73
2021/06/03 08:01:18;;;;;;;11.15;4.82;;;;;;;21.87;74.67;96772.13;5041525;28;20263;-73
2021/06/03 08:03:45;;;;;;;6.30;4.68;;;;;;;21.93;74.67;96776.56;5040634;28;20909;-73
2021/06/03 08:06:11;;;;;;;7.03;4.68;;;;;;;22.00;76.53;96771.06;5041094;28;20263;-73
2021/06/03 08:08:37;;;;;;;7.07;4.53;;;;;;;22.01;75.14;96767.31;5038900;28;20197;-73
2021/06/03 08:11:04;;;;;;;5.28;4.00;;;;;;;22.33;74.07;96769.41;5041486;28;20209;-73
2021/06/03 08:13:30;;;;;;;6.60;4.30;;;;;;;22.51;73.84;96774.63;5039981;28;20570;-73
2021/06/03 08:15:57;;;;;;;7.80;4.60;;;;;;;22.46;73.37;96778.00;5039940;28;20209;-73
2021/06/03 08:18:23;;;;;;;6.28;4.03;;;;;;;22.39;73.36;96776.50;5040406;28;20225;-73
2021/06/03 08:20:52;;;;;;;6.45;4.47;;;;;;;22.35;72.41;96776.19;5041896;28;20208;-73
2021/06/03 08:23:19;;;;;;;5.05;3.95;;;;;;;22.19;74.35;96776.88;5041190;28;20228;-73
2021/06/03 08:25:46;;;;;;;5.68;4.55;;;;;;;22.45;72.89;96770.19;5042342;28;21039;-73
2021/06/03 08:28:12;;;;;;;8.95;5.00;;;;;;;22.68;74.84;96773.63;5041767;28;20194;-73
2021/06/03 08:30:39;;;;;;;6.57;4.40;;;;;;;22.67;72.31;96766.63;5041497;28;20204;-73
2021/06/03 08:33:08;;;;;;;5.45;4.05;;;;;;;22.88;70.66;96771.34;5041485;28;20221;-73
2021/06/03 08:35:35;;;;;;;6.53;3.72;;;;;;;23.03;69.96;96769.78;5041147;28;20209;-73
2021/06/03 08:38:04;;;;;;;6.82;3.80;;;;;;;22.87;69.52;96773.22;5041138;28;20232;-73
2021/06/03 08:40:33;;;;;;;5.40;3.90;;;;;;;22.85;69.77;96778.00;5042062;28;20208;-73
2021/06/03 08:43:01;;;;;;;5.40;3.72;;;;;;;22.67;70.38;96777.38;5041442;28;20232;-73
2021/06/03 08:45:30;;;;;;;6.28;4.43;;;;;;;22.66;73.13;96773.06;5040597;28;20677;-73
2021/06/03 08:47:56;;;;;;;9.57;3.88;;;;;;;22.92;69.93;96775.19;5041783;28;20201;-73
2021/06/03 08:50:27;;;;;;;8.65;4.32;;;;;;;23.03;69.82;96777.84;5040880;28;20201;-73
2021/06/03 08:52:54;;;;;;;6.05;4.20;;;;;;;23.39;71.00;96770.16;5040959;28;20228;-73
2021/06/03 08:58:10;;;;;;;6.38;4.40;;;;;;;23.65;68.85;96780.28;5041323;28;20295;-73
2021/06/03 09:00:37;;;;;;;4.68;3.80;;;;;;;23.87;66.27;96777.69;5042057;28;20340;-73
2021/06/03 09:03:03;;;;;;;6.13;4.18;;;;;;;23.99;68.85;96779.22;5040741;28;20426;-73
2021/06/03 09:05:30;;;;;;;5.40;3.85;;;;;;;24.04;68.79;96785.50;5040855;28;20197;-73
2021/06/03 09:07:57;;;;;;;5.20;3.67;;;;;;;24.14;67.45;96779.44;5040389;28;20220;-73
2021/06/03 09:10:29;;;;;;;4.25;3.20;;;;;;;24.13;66.15;96781.34;5042554;28;20267;-73
2021/06/03 09:13:12;;;;;;;7.32;3.45;;;;;;;24.24;64.82;96780.41;5041580;28;20221;-73
2021/06/03 09:15:40;;;;;;;5.13;3.10;;;;;;;24.08;62.78;96781.25;5040682;28;20213;-73
2021/06/03 09:18:08;;;;;;;4.10;2.55;;;;;;;23.95;62.02;96780.78;5041385;28;20221;-73
2021/06/03 09:20:37;;;;;;;5.35;2.78;;;;;;;24.07;66.20;96778.78;5041760;28;21248;-73
2021/06/03 09:23:03;;;;;;;5.75;3.17;;;;;;;24.21;64.45;96785.47;5042836;28;20224;-73
2021/06/03 09:25:31;;;;;;;6.07;2.90;;;;;;;23.88;61.49;96774.75;5039489;28;20197;-73
2021/06/03 09:28:17;;;;;;;5.57;3.08;;;;;;;23.97;64.41;96784.06;5039957;28;20205;-74
2021/06/03 09:31:11;;;;;;;6.13;2.42;;;;;;;23.98;61.71;96791.03;5038705;28;20763;-74
2021/06/03 09:33:54;;;;;;;4.65;2.70;;;;;;;23.90;63.72;96783.38;5024084;28;20221;-74
2021/06/03 09:36:28;;;;;;;4.63;3.00;;;;;;;23.92;64.05;96786.66;5038354;28;20212;-74
2021/06/03 09:38:58;;;;;;;4.82;3.05;;;;;;;23.98;63.77;96791.03;5039332;28;20225;-72
2021/06/03 09:41:26;;;;;;;5.57;2.70;;;;;;;23.96;62.05;96782.41;5039141;28;20200;-72
2021/06/03 09:44:04;;;;;;;5.55;3.50;;;;;;;23.82;59.45;96783.00;5040432;28;20225;-73
2021/06/03 09:46:35;;;;;;;3.70;2.42;;;;;;;23.62;61.01;96785.34;5039992;28;20193;-72
2021/06/03 09:49:01;;;;;;;6.00;2.67;;;;;;;23.86;65.17;96778.75;5040398;28;20194;-72
2021/06/03 09:51:30;;;;;;;3.95;2.60;;;;;;;24.09;59.87;96784.75;5040522;28;20201;-73
2021/06/03 09:53:59;;;;;;;5.55;2.20;;;;;;;24.28;59.58;96786.09;5039803;28;20225;-72
2021/06/03 09:56:27;;;;;;;5.28;2.60;;;;;;;24.44;57.75;96787.97;5040662;28;20202;-73
2021/06/03 09:58:54;;;;;;;4.63;2.50;;;;;;;24.31;58.66;96785.59;5040884;28;20287;-73
2021/06/03 10:01:42;;;;;;;10.68;4.50;;;;;;;24.88;61.86;96776.94;5040082;28;20197;-73
2021/06/03 10:04:09;;;;;;;5.57;3.55;;;;;;;25.37;59.52;96765.88;5039799;28;20282;-73
2021/06/03 10:06:56;;;;;;;4.85;2.67;;;;;;;25.45;55.98;96774.31;5040001;28;20568;-73
2021/06/03 10:09:47;;;;;;;4.80;2.28;;;;;;;25.50;54.88;96766.25;5037951;28;21173;-72
2021/06/03 10:12:24;;;;;;;2.72;2.30;;;;;;;25.84;55.40;96771.16;5038898;28;20208;-73
2021/06/03 10:14:51;;;;;;;6.30;2.40;;;;;;;25.91;53.32;96779.84;5040234;28;20205;-73
2021/06/03 10:17:20;;;;;;;4.60;2.20;;;;;;;25.94;53.48;96776.63;5039502;28;20224;-73
2021/06/03 10:19:48;;;;;;;4.32;2.60;;;;;;;26.00;52.17;96775.59;5040319;28;20251;-73
2021/06/03 10:22:21;;;;;;;3.80;2.10;;;;;;;25.60;52.96;96771.75;5039893;28;20212;-73
2021/06/03 10:25:08;;;;;;;4.05;2.10;;;;;;;25.47;54.89;96768.66;5041795;28;20236;-72
2021/06/03 10:27:36;;;;;;;3.60;1.98;;;;;;;25.58;56.67;96773.06;5041095;28;20193;-73
2021/06/03 10:30:07;;;;;;;6.00;2.42;;;;;;;25.66;58.54;96765.31;5040742;28;20252;-72
2021/06/03 10:32:34;;;;;;;3.72;2.25;;;;;;;25.71;54.79;96765.38;5040282;28;20224;-72
2021/06/03 10:35:01;;;;;;;5.03;2.40;;;;;;;25.63;57.16;96765.81;5040302;28;20564;-72
2021/06/03 10:37:29;;;;;;;3.60;2.42;;;;;;;25.64;54.23;96766.66;5039964;28;20221;-73
2021/06/03 10:39:55;;;;;;;4.32;2.33;;;;;;;25.48;50.83;96762.19;5040277;28;20600;-73
2021/06/03 10:42:24;;;;;;;4.18;2.38;;;;;;;25.48;51.82;96764.88;5039478;28;20559;-72
2021/06/03 10:44:51;;;;;;;3.55;2.60;;;;;;;25.45;52.65;96762.72;5037962;28;20209;-72
2021/06/03 10:47:19;;;;;;;3.53;2.15;;;;;;;25.57;54.02;96760.63;5036603;28;20197;-72
2021/06/03 10:49:45;;;;;;;3.53;2.15;;;;;;;25.50;58.39;96760.84;5036972;28;20576;-72
2021/06/03 10:52:15;;;;;;;3.08;2.15;;;;;;;25.93;55.01;96750.69;5038341;28;20197;-72
2021/06/03 10:54:48;;;;;;;4.93;2.15;;;;;;;25.87;57.96;96753.63;5037130;28;20693;-72
2021/06/03 10:57:16;;;;;;;6.90;2.65;;;;;;;25.87;56.41;96751.72;5036824;28;20205;-72
2021/06/03 10:59:43;;;;;;;4.13;2.55;;;;;;;26.12;51.43;96751.91;5037975;28;20251;-72
2021/06/03 11:02:10;;;;;;;3.30;2.40;;;;;;;25.61;57.16;96748.25;5038435;28;20267;-72
2021/06/03 11:04:38;;;;;;;3.63;2.10;;;;;;;26.07;54.68;96745.63;5039418;28;20201;-72
2021/06/03 11:07:05;;;;;;;2.65;2.15;;;;;;;26.01;57.18;96747.50;5034884;28;21036;-72
2021/06/03 11:09:33;;;;;;;7.68;2.40;;;;;;;26.03;57.21;96745.38;5039000;28;20197;-72
2021/06/03 11:12:12;;;;;;;4.03;2.53;;;;;;;26.32;54.93;96738.50;5035131;28;20197;-72
2021/06/03 11:15:15;;;;;;;5.43;2.20;;;;;;;26.61;55.58;96743.25;5038270;28;20682;-72
2021/06/03 11:17:56;;;;;;;5.72;2.08;;;;;;;26.88;56.46;96740.38;5040194;28;20232;-72
2021/06/03 11:20:40;;;;;;;3.83;2.13;;;;;;;26.45;54.86;96738.03;5040911;28;20671;-73
2021/06/03 11:23:47;;;;;;;3.95;1.88;;;;;;;26.53;50.49;96734.84;5041194;28;20644;-72
2021/06/03 11:26:47;;;;;;;3.63;1.95;;;;;;;26.48;52.37;96726.72;5039816;28;20201;-72
2021/06/03 11:29:16;;;;;;;3.45;2.10;;;;;;;26.81;49.67;96726.31;5039313;28;20208;-72
2021/06/03 11:31:43;;;;;;;3.92;2.20;;;;;;;26.72;51.93;96723.28;5041058;28;20240;-72
2021/06/03 11:34:11;;;;;;;3.03;2.00;;;;;;;26.34;48.86;96722.88;5040958;28;20601;-72
2021/06/03 11:36:39;;;;;;;4.20;1.90;;;;;;;26.31;47.90;96731.47;5041432;28;20201;-72